Earning Calendar for Industry: Real Estate Investment Trusts

Report Date Report Time Symbol Name Sector Market Cap(M) EPS EPS Forecast EPS Surprise Price(ER) Day 1 Price Change% Day 2 Price Change% Two Days Price Change%
2018-03-01 ACRE Ares Commercial Real Estate Corporation Consumer Services 385.66 0.25 0.23 8.7
2018-03-01 AHT Ashford Hospitality Trust Inc Consumer Services 628.48 0.24 0.21 14.29
2018-02-28 DOC Physicians Realty Trust Consumer Services 3230 0.27 0.27 0
2018-02-28 STWD STARWOOD PROPERTY TRUST, INC. Consumer Services 5870 0.55 0.48 14.58
2018-02-28 AHP Ashford Hospitality Prime, Inc. Consumer Services 311.09 0.31 0.3 3.33
2018-02-27 SNH Senior Housing Properties Trust Consumer Services 5100 0.25 0.28 -10.71
2018-02-27 LAMR Lamar Advertising Company Consumer Services 7030 1.38 1.25 10.4
2018-02-27 GNL Global Net Lease, Inc. Consumer Services 1510 0.51 0.51 0
2018-02-27 AMT American Tower Corporation (REIT) Consumer Services 55620 1.59 1.64 -3.05
2018-02-27 SOHO Sotherly Hotels Inc. Consumer Services 92.17 0.22 0.18 22.22
2018-02-27 LXP Lexington Realty Trust Consumer Services 2470 0.26 0.25 4
2018-02-27 RLJ RLJ Lodging Trust Consumer Services 2600 0.57 0.49 16.33
2018-02-26 HHC Howard Hughes Corporation (The) Consumer Services 5030 1.28 0.27 374.07
2018-02-26 SBAC SBA Communications Corporation Consumer Services 16040 0.23 0.18 27.78
2018-02-26 NSA National Storage Affiliates Trust Consumer Services 997.98 0.32 0.31 3.23
2018-02-26 DRH Diamondrock Hospitality Company Consumer Services 2300 0.25 0.23 8.7
2018-02-26 APTS Preferred Apartment Communities, Inc. Consumer Services 501.42 0.36 0.35 2.86
2018-02-26 CLDT Chatham Lodging Trust (REIT) Consumer Services 773.48 0.38 0.38 0
2018-02-23 WPC W.P. Carey Inc. Consumer Services 7220 1.31 1.12 16.96
2018-02-23 RHP Ryman Hospitality Properties, Inc. Consumer Services 3320 1.69 1.62 4.32
2018-02-23 SNR New Senior Investment Group Inc. Consumer Services 804.98 0.28 0.28 0
2018-02-23 ABR Arbor Realty Trust Consumer Services 512.89 0.25 0.2 25
2018-02-22 ADC Agree Realty Corporation Consumer Services 1260 0.71 0.69 2.9
2018-02-22 APLE Apple Hospitality REIT, Inc. Consumer Services 4310 0.36 0.36 0
2018-02-22 AMH American Homes 4 Rent Consumer Services 5800 0.26 0.26 0
2018-02-22 PEB Pebblebrook Hotel Trust Consumer Services 2270 0.49 0.43 13.95
2018-02-22 CHCT Community Healthcare Trust Incorporated Consumer Services 336.41 0.37 0.36 2.78
2018-02-22 STOR STORE Capital Corporation Consumer Services 3600 0.43 0.41 4.88
2018-02-22 VER VEREIT Inc. Consumer Services 8230 0.18 0.17 5.88
2018-02-22 HCN Welltower Inc. Consumer Services 27340 1.02 1.04 -1.92
2018-02-22 RWT Redwood Trust, Inc. Consumer Services 1320 0.35 0.34 2.94
2018-02-21 HASI Hannon Armstrong Sustainable Infrastructure Capital, Inc. Consumer Services 1190 0.25 0.27 -7.41
2018-02-21 LSI Life Storage, Inc. Consumer Services 3500 1.34 1.31 2.29
2018-02-21 SBRA Sabra Healthcare REIT, Inc. Consumer Services 1530 0.66 0.67 -1.49
2018-02-21 SUI Sun Communities, Inc. Consumer Services 7130 0.98 0.98 0
2018-02-21 HT Hersha Hospitality Trust Consumer Services 799.97 0.48 0.39 23.08
2018-02-21 CONE CyrusOne Inc Consumer Services 5050 0.84 0.81 3.7
2018-02-21 DX Dynex Capital, Inc. Consumer Services 347.39 0.2 0 0
2018-02-21 WRI Weingarten Realty Investors Consumer Services 4110 0.61 0.61 0
2018-02-21 ESRT Empire State Realty Trust, Inc. Consumer Services 6710 0.25 0.25 0
2018-02-21 FR First Industrial Realty Trust, Inc. Consumer Services 3480 0.41 0.4 2.5
2018-02-21 HST Host Hotels & Resorts, Inc. Consumer Services 13750 0.42 0.39 7.69
2018-02-21 ROIC Retail Opportunity Investments Corp. Consumer Services 2270 0.3 0.29 3.45
2018-02-21 CLI Mack-Cali Realty Corporation Consumer Services 2540 0.5 0.53 -5.66
2018-02-21 WPG Washington Prime Group Inc. Consumer Services 1530 0.44 0.44 0
2018-02-21 INN Summit Hotel Properties, Inc. Consumer Services 1980 0.3 0.27 11.11
2018-02-21 MRT MedEquities Realty Trust, Inc. Consumer Services 385.11 0.31 0.31 0
2018-02-21 O Realty Income Corporation Consumer Services 15540 0.76 0.77 -1.3
2018-02-21 AKR Acadia Realty Trust Consumer Services 2420 0.37 0.33 12.12
2018-02-20 EDR Education Realty Trust Inc. Consumer Services 2870 0.59 0.58 1.72
2018-02-20 EXR Extra Space Storage Inc Consumer Services 9670 1.12 1.08 3.7
2018-02-20 IRT Independence Realty Trust, Inc. Consumer Services 697.48 0.18 0.19 -5.26
2018-02-20 NYMT New York Mortgage Trust, Inc. Consumer Services 729.22 0.21 0.13 61.54
2018-02-20 PSB PS Business Parks, Inc. Consumer Services 3620 1.52 1.53 -0.65
2018-02-20 RPT Ramco-Gershenson Properties Trust Consumer Services 1070 0.31 0.33 -6.06
2018-02-20 PSA Public Storage Consumer Services 36970 2.75 2.72 1.1
2018-02-20 LHO LaSalle Hotel Properties Consumer Services 3490 0.53 0.53 0
2018-02-20 ACC American Campus Communities Inc Consumer Services 6460 0.72 0.71 1.41
2018-02-20 FCPT Four Corners Property Trust, Inc. Consumer Services 1540 0.34 0.35 -2.86
2018-02-20 LAND Gladstone Land Corporation Consumer Services 134.5 0.14 0.15 -6.67
2018-02-20 MGP MGM Growth Properties LLC Consumer Services 1670 0.52 0.53 -1.89
2018-02-20 QTS QTS Realty Trust, Inc. Consumer Services 2520 0.79 0.74 6.76
2018-02-16 IRM Iron Mountain Incorporated Consumer Services 9140 0.53 0.57 -7.02
2018-02-16 NHI National Health Investors, Inc. Consumer Services 3170 1.36 1.33 2.26
2018-02-16 SIR Select Income REIT Consumer Services 2220 0.68 0.69 -1.45
2018-02-15 STAG Stag Industrial, Inc. Consumer Services 2490 0.44 0.43 2.33
2018-02-15 DDR DDR Corp. Consumer Services 3440 0.28 0.26 7.69
2018-02-15 HTA Healthcare Trust of America, Inc. Consumer Services 6330 0.42 0.42 0
2018-02-15 MFA MFA Financial, Inc. Consumer Services 3190 0.24 0.2 20
2018-02-15 PGRE Paramount Group, Inc. Consumer Services 3800 0.22 0.21 4.76
2018-02-15 CUBE CubeSmart Consumer Services 4410 0.41 0.41 0
2018-02-15 CHSP Chesapeake Lodging Trust Consumer Services 1490 0.48 0.5 -4
2018-02-15 DLR Digital Realty Trust, Inc. Consumer Services 19100 1.55 1.52 1.97
2018-02-15 CTT CatchMark Timber Trust, Inc. Consumer Services 451.75 -0.12 -0.11 -9.09
2018-02-15 CXP Columbia Property Trust, Inc. Consumer Services 2700 0.32 0.32 0
2018-02-15 KIM Kimco Realty Corporation Consumer Services 8320 0.38 0.38 0
2018-02-14 EQIX Equinix, Inc. Consumer Services 33810 4.82 4.8 0.42
2018-02-14 GEO Geo Group Inc (The) Consumer Services 3810 0.67 0.5 34
2018-02-14 CIM Chimera Investment Corporation Consumer Services 3600 0.62 0.61 1.64
2018-02-14 EQC Equity Commonwealth Consumer Services 3960 0.19 0.21 -9.52
2018-02-14 NLY Annaly Capital Management Inc Consumer Services 12570 0.31 0.3 3.33
2018-02-14 PEI Pennsylvania Real Estate Investment Trust Consumer Services 806.21 0.51 0.48 6.25
2018-02-14 ARI Apollo Commercial Real Estate Finance Consumer Services 1990 0.32 0.1 220
2018-02-14 CXW CoreCivic, Inc. Consumer Services 3430 0.56 0.55 1.82
2018-02-14 HR Healthcare Realty Trust Incorporated Consumer Services 4140 0.38 0.39 -2.56
2018-02-13 AAT American Assets Trust, Inc. Consumer Services 1930 0.46 0.54 -14.81
2018-02-13 NNN National Retail Properties Consumer Services 5900 0.63 0.64 -1.56
2018-02-13 FRT Federal Realty Investment Trust Consumer Services 9270 1.47 1.47 0
2018-02-13 NXRT NexPoint Residential Trust, Inc. Consumer Services 543.14 0.4 0.37 8.11
2018-02-13 OHI Omega Healthcare Investors, Inc. Consumer Services 6390 0.79 0.76 3.95
2018-02-13 REXR Rexford Industrial Realty, Inc. Consumer Services 1860 0.26 0.25 4
2018-02-13 RPAI Retail Properties of America, Inc. Consumer Services 3050 0.25 0.23 8.7
2018-02-13 HCP HCP, Inc. Consumer Services 15070 0.48 0.47 2.13
2018-02-13 SKT Tanger Factory Outlet Centers, Inc. Consumer Services 2580 0.66 0.63 4.76
2018-02-13 DEI Douglas Emmett, Inc. Consumer Services 6030 0.49 0.49 0
2018-02-13 NRZ New Residential Investment Corp. Consumer Services 5130 0.61 0.54 12.96
2018-02-13 BXMT Capital Trust, Inc. Consumer Services 3030 0.59 0.55 7.27
2018-02-12 BRX Brixmor Property Group Inc. Consumer Services 5940 0.52 0.5 4
2018-02-12 VNO Vornado Realty Trust Consumer Services 17890 0.98 0.96 2.08
2018-02-12 TIER TIER REIT, Inc. Consumer Services 839.4 0.4 0.41 -2.44
2018-02-09 VTR Ventas, Inc. Consumer Services 24500 1.03 1.03 0
2018-02-09 BRT BRT Apartments Corp. Consumer Services 110.22 0.26 0.21 23.81
2018-02-08 TCO Taubman Centers, Inc. Consumer Services 3610 1.03 1.02 0.98
2018-02-08 MPW Medical Properties Trust, Inc. Consumer Services 4820 0.37 0.35 5.71
2018-02-08 ORC Orchid Island Capital, Inc. Consumer Services 351.56 0.49 0 0
2018-02-08 COR CoreSite Realty Corporation Consumer Services 3690 1.18 1.14 3.51
2018-02-08 EARN Ellington Residential Mortgage REIT Consumer Services 137.33 0.4 0.43 -6.98
2018-02-08 CBL CBL & Associates Properties, Inc. Consumer Services 1450 0.56 0.58 -3.45
2018-02-08 GLPI Gaming and Leisure Properties, Inc. Consumer Services 7560 0.76 0.76 0
2018-02-08 OFC Corporate Office Properties Trust Consumer Services 3550 0.53 0.53 0
2018-02-08 PMT PennyMac Mortgage Investment Trust Consumer Services 1200 0.32 0.34 -5.88
2018-02-08 REG Regency Centers Corporation Consumer Services 10900 0.92 0.92 0
2018-02-08 CDR Cedar Realty Trust, Inc. Consumer Services 449.2 0.14 0.14 0
2018-02-07 CUZ Cousins Properties Incorporated Consumer Services 3740 0.15 0.14 7.14
2018-02-07 ESS Essex Property Trust, Inc. Consumer Services 17300 3.01 3.01 0
2018-02-07 MNR Monmouth Real Estate Investment Corporation Consumer Services 1090 0.22 0.21 4.76
2018-02-07 RYN Rayonier Inc. Consumer Services 3710 0.2 0.09 122.22
2018-02-07 GGP GGP Inc. Consumer Services 21410 0.48 0.47 2.13
2018-02-06 UDR United Dominion Realty Trust, Inc. Consumer Services 10700 0.48 0.48 0
2018-02-06 HIW Highwoods Properties, Inc. Consumer Services 5370 0.84 0.83 1.2
2018-02-06 LPT Liberty Property Trust Consumer Services 6250 0.68 0.65 4.62
2018-02-06 TWO Two Harbors Investments Corp Consumer Services 3580 0.47 0.47 0
2018-02-05 MAC Macerich Company (The) Consumer Services 8330 1.13 1.14 -0.88
2018-02-02 WY Weyerhaeuser Company Consumer Services 25260 0.31 0.35 -11.43
2018-02-01 AIV Apartment Investment and Management Company Consumer Services 6980 0.63 0.63 0
2018-02-01 DCT DCT Industrial Trust Inc Consumer Services 5070 0.63 0.62 1.61
2018-02-01 KRG Kite Realty Group Trust Consumer Services 1620 0.5 0.5 0
2018-02-01 CPT Camden Property Trust Consumer Services 7740 1.18 1.18 0
2018-01-31 DRE Duke Realty Corporation Consumer Services 10330 0.3 0.3 0
2018-01-31 AVB AvalonBay Communities, Inc. Consumer Services 27000 2.25 2.25 0
2018-01-31 SPG Simon Property Group, Inc. Consumer Services 50180 3.12 3.12 0
2018-01-31 KRC Kilroy Realty Corporation Consumer Services 7530 0.85 0.85 0
2018-01-31 MAA Mid-America Apartment Communities, Inc. Consumer Services 12490 1.5 1.48 1.35
2018-01-31 EGP EastGroup Properties, Inc. Consumer Services 2930 1.14 1.1 3.64
2018-01-31 AGNC AGNC Investment Corp. Consumer Services 7230 0.62 0.62 0
2018-01-30 BXP Boston Properties, Inc. Consumer Services 19580 1.49 1.53 -2.61
2018-01-30 EQR Equity Residential Consumer Services 24880 0.83 0.81 2.47
2018-01-29 ELS Equity Lifestyle Properties, Inc. Consumer Services 7460 0.88 0.87 1.15
2018-01-29 ARE Alexandria Real Estate Equities, Inc. Consumer Services 10830 1.53 1.54 -0.65
2018-01-29 PCH Potlatch Corporation Consumer Services 1910 0.54 0.6 -10
2018-01-25 BDN Brandywine Realty Trust Consumer Services 3090 0.32 0.33 -3.03
2018-01-24 CCI Crown Castle International Corporation Consumer Services 37090 1.25 1.01 23.76
2018-01-24 SLG SL Green Realty Corporation Consumer Services 10800 1.6 1.6 0
2018-01-23 PLD Prologis, Inc. Consumer Services 31030 0.67 0.66 1.52
2017-12-15 UBA Urstadt Biddle Properties Inc. Consumer Services 798.49 0.21 0.3 -30
2017-12-14 BRT BRT Apartments Corp. Consumer Services 110.22 0.22 0.17 29.41
2017-12-11 IRET Investors Real Estate Trust Consumer Services 765.64 0.1 0.09 11.11
2017-11-29 MNR Monmouth Real Estate Investment Corporation Consumer Services 1090 0.21 0.21 0